Time;durP1;ratioP1;P1;durP2;ratioP2;P2;SDS_P1;SDS_P2;PMS_P1;PMS_P2;Temp;Humidity;BMP_temperature;BMP_pressure;BME280_temperature;BME280_humidity;BME280_pressure;Samples;Min_cycle;Max_cycle;Signal;HPM_P1;HPM_P2
2022/07/13 00:01:25;;;;;;;4.67;3.70;;;21.60;35.00;;;;;;5029790;28;20600;-67
2022/07/13 00:03:51;;;;;;;5.63;3.70;;;21.50;35.00;;;;;;5030005;28;20208;-68
2022/07/13 00:06:18;;;;;;;5.10;3.40;;;21.50;35.60;;;;;;5032190;28;20439;-68
2022/07/13 00:08:44;;;;;;;4.90;3.50;;;21.40;35.90;;;;;;5014702;28;20430;-67
2022/07/13 00:11:09;;;;;;;4.90;3.93;;;21.30;36.40;;;;;;5024318;28;20972;-68
2022/07/13 00:13:35;;;;;;;4.17;3.50;;;21.40;36.10;;;;;;5030279;28;20490;-68
2022/07/13 00:16:01;;;;;;;7.20;4.03;;;21.40;37.50;;;;;;5031998;28;20189;-67
2022/07/13 00:18:26;;;;;;;6.60;3.60;;;21.30;36.60;;;;;;5030962;28;20237;-68
2022/07/13 00:20:52;;;;;;;4.13;3.70;;;21.30;36.60;;;;;;5030002;28;20236;-68
2022/07/13 00:23:17;;;;;;;4.57;3.33;;;21.40;36.30;;;;;;5031895;28;20180;-68
2022/07/13 00:25:43;;;;;;;3.90;3.20;;;21.20;36.10;;;;;;5029658;28;20203;-67
2022/07/13 00:28:08;;;;;;;5.00;3.40;;;21.10;36.80;;;;;;5029975;28;20197;-66
2022/07/13 00:30:34;;;;;;;7.93;3.13;;;21.00;36.50;;;;;;5031820;28;20279;-68
2022/07/13 00:33:00;;;;;;;3.80;3.40;;;20.90;38.40;;;;;;5030607;28;20181;-68
2022/07/13 00:35:25;;;;;;;3.30;2.90;;;20.90;38.20;;;;;;5030199;28;20677;-68
2022/07/13 00:37:51;;;;;;;4.60;3.30;;;20.80;37.50;;;;;;5031928;28;20237;-68
2022/07/13 00:40:16;;;;;;;4.97;2.90;;;20.80;37.60;;;;;;5028836;28;20196;-68
2022/07/13 00:42:42;;;;;;;5.47;3.50;;;20.80;37.60;;;;;;5026638;28;20211;-68
2022/07/13 00:45:08;;;;;;;8.93;3.30;;;20.90;38.70;;;;;;5028698;28;20657;-68
2022/07/13 00:47:34;;;;;;;5.50;2.97;;;20.90;38.00;;;;;;5014072;28;20190;-67
2022/07/13 00:50:01;;;;;;;3.33;3.03;;;20.80;37.90;;;;;;5031752;28;20786;-67
2022/07/13 00:52:27;;;;;;;3.50;2.93;;;20.80;38.20;;;;;;5012065;28;20183;-68
2022/07/13 00:54:53;;;;;;;6.33;3.83;;;21.00;37.20;;;;;;5030568;28;20438;-67
2022/07/13 00:57:19;;;;;;;6.60;3.50;;;21.10;36.80;;;;;;5029119;28;20439;-68
2022/07/13 00:59:46;;;;;;;4.40;3.60;;;21.00;37.70;;;;;;5030153;28;20445;-68
2022/07/13 01:02:12;;;;;;;4.60;3.40;;;20.80;38.30;;;;;;5029947;28;20486;-67
2022/07/13 01:04:38;;;;;;;4.63;3.80;;;20.80;37.90;;;;;;5030197;28;20861;-68
2022/07/13 01:07:04;;;;;;;4.37;3.40;;;20.90;38.40;;;;;;5029843;28;20187;-67
2022/07/13 01:09:30;;;;;;;5.30;3.63;;;20.80;37.60;;;;;;5024828;28;20983;-67
2022/07/13 01:11:56;;;;;;;8.27;3.70;;;20.80;38.20;;;;;;5025227;28;20546;-68
2022/07/13 01:14:22;;;;;;;4.57;3.50;;;20.90;38.10;;;;;;5012158;28;20442;-68
2022/07/13 01:16:48;;;;;;;6.27;3.90;;;20.80;38.60;;;;;;5023176;28;20230;-67
2022/07/13 01:19:15;;;;;;;4.50;3.53;;;20.70;37.60;;;;;;5029985;28;20439;-68
2022/07/13 01:21:43;;;;;;;11.50;3.90;;;20.50;38.10;;;;;;5022454;28;20253;-67
2022/07/13 01:24:09;;;;;;;7.13;4.57;;;20.60;39.10;;;;;;5029746;28;20552;-68
2022/07/13 01:26:36;;;;;;;15.40;6.50;;;20.80;37.60;;;;;;5030323;28;20490;-68
2022/07/13 01:29:02;;;;;;;5.60;4.20;;;20.70;37.80;;;;;;5031955;28;20938;-68
2022/07/13 01:31:36;;;;;;;5.73;4.50;;;20.60;38.10;;;;;;5011257;28;20441;-68
2022/07/13 01:34:02;;;;;;;6.13;4.73;;;20.50;38.60;;;;;;5030149;28;20624;-68
2022/07/13 01:36:28;;;;;;;4.70;4.17;;;20.40;38.50;;;;;;5022567;28;20507;-68
2022/07/13 01:38:55;;;;;;;5.07;4.00;;;20.30;39.20;;;;;;5028466;28;20435;-68
2022/07/13 01:41:21;;;;;;;6.10;4.23;;;20.30;38.50;;;;;;5029709;28;20480;-67
2022/07/13 01:43:49;;;;;;;7.20;4.27;;;20.20;38.70;;;;;;5030370;28;20465;-68
2022/07/13 01:46:15;;;;;;;5.37;3.77;;;20.20;39.90;;;;;;5030158;28;20786;-68
2022/07/13 01:48:41;;;;;;;5.33;4.33;;;20.10;39.90;;;;;;5029968;28;20439;-67
2022/07/13 01:51:06;;;;;;;7.80;5.13;;;20.10;39.90;;;;;;5028248;28;20441;-67
2022/07/13 01:53:32;;;;;;;8.50;4.80;;;20.10;40.00;;;;;;5027961;28;20179;-68
2022/07/13 01:55:58;;;;;;;12.70;6.47;;;20.20;40.20;;;;;;5029650;28;20189;-66
2022/07/13 01:58:23;;;;;;;15.80;8.10;;;20.30;39.80;;;;;;5030686;28;20269;-67
2022/07/13 02:00:49;;;;;;;22.30;9.70;;;20.50;37.60;;;;;;5029119;28;20201;-67
2022/07/13 02:03:15;;;;;;;21.27;8.83;;;20.40;38.40;;;;;;5027973;28;20721;-68
2022/07/13 02:05:40;;;;;;;20.03;8.47;;;20.20;39.50;;;;;;5029144;28;20285;-67
2022/07/13 02:08:06;;;;;;;12.13;6.97;;;20.20;39.20;;;;;;5052537;22;20431;-72
2022/07/13 02:10:35;;;;;;;14.00;5.93;;;20.10;39.80;;;;;;5020314;28;20603;-71
2022/07/13 02:13:14;;;;;;;11.03;6.23;;;20.20;39.80;;;;;;5010652;28;20475;-71
2022/07/13 02:15:40;;;;;;;8.53;4.40;;;20.30;40.00;;;;;;5013644;28;20426;-71
2022/07/13 02:18:06;;;;;;;10.70;4.60;;;20.20;39.00;;;;;;5018218;28;20460;-71
2022/07/13 02:20:33;;;;;;;5.90;4.10;;;20.50;39.00;;;;;;5004069;28;20505;-71
2022/07/13 02:22:58;;;;;;;5.40;4.00;;;20.50;38.40;;;;;;5005978;28;20938;-72
2022/07/13 02:25:24;;;;;;;6.47;4.70;;;20.30;39.00;;;;;;5007276;28;20441;-70
2022/07/13 02:27:49;;;;;;;4.80;4.23;;;20.10;39.70;;;;;;5006885;28;20184;-71
2022/07/13 02:30:15;;;;;;;6.33;4.80;;;20.00;39.40;;;;;;5008581;28;20183;-71
2022/07/13 02:32:43;;;;;;;7.33;4.73;;;20.00;39.80;;;;;;5006037;28;20193;-71
2022/07/13 02:35:09;;;;;;;6.63;4.70;;;20.00;39.40;;;;;;5010742;28;20621;-71
2022/07/13 02:37:35;;;;;;;4.97;4.20;;;19.80;39.50;;;;;;5013172;28;20425;-71
2022/07/13 02:40:01;;;;;;;5.13;3.93;;;19.90;40.50;;;;;;5013747;28;20464;-70
2022/07/13 02:42:26;;;;;;;5.63;3.77;;;19.70;41.00;;;;;;5007217;28;20176;-71
2022/07/13 02:44:53;;;;;;;11.37;3.87;;;19.70;40.70;;;;;;5006832;28;20432;-71
2022/07/13 02:47:19;;;;;;;7.20;4.27;;;19.80;40.50;;;;;;5013964;28;20188;-71
2022/07/13 02:49:45;;;;;;;5.17;4.00;;;20.00;40.00;;;;;;5010792;28;20436;-70
2022/07/13 02:52:11;;;;;;;8.90;4.10;;;19.80;40.70;;;;;;5005459;28;20455;-71
2022/07/13 02:54:36;;;;;;;4.93;4.10;;;19.80;40.80;;;;;;5013536;28;20571;-70
2022/07/13 02:57:02;;;;;;;3.60;3.43;;;19.60;41.30;;;;;;5010647;28;20442;-71
2022/07/13 02:59:33;;;;;;;4.00;3.70;;;19.70;41.20;;;;;;5011489;28;20197;-71
2022/07/13 03:01:59;;;;;;;5.67;3.53;;;19.50;41.40;;;;;;5012583;28;20206;-71
2022/07/13 03:04:24;;;;;;;5.87;4.00;;;19.60;41.30;;;;;;5010162;28;21023;-71
2022/07/13 03:06:50;;;;;;;7.03;3.80;;;19.70;40.60;;;;;;5005342;28;20424;-71
2022/07/13 03:09:16;;;;;;;5.27;3.23;;;19.80;39.40;;;;;;5012611;28;20365;-71
2022/07/13 03:11:41;;;;;;;4.10;3.37;;;20.00;39.70;;;;;;5009942;28;20210;-71
2022/07/13 03:14:07;;;;;;;4.80;3.60;;;19.60;40.50;;;;;;5010318;28;20562;-71
2022/07/13 03:16:34;;;;;;;3.87;3.40;;;19.60;40.60;;;;;;5013013;28;20257;-71
2022/07/13 03:19:00;;;;;;;5.73;3.67;;;22.60;44.10;;;;;;5010744;28;20205;-71
2022/07/13 03:21:29;;;;;;;4.87;3.50;;;19.50;40.80;;;;;;5005621;28;20468;-71
2022/07/13 03:23:58;;;;;;;4.00;3.30;;;19.70;40.00;;;;;;5004762;28;20430;-70
2022/07/13 03:26:24;;;;;;;4.13;3.40;;;19.70;40.70;;;;;;5011171;28;20916;-71
2022/07/13 03:28:50;;;;;;;7.20;3.70;;;19.50;41.20;;;;;;5010986;28;20461;-71
2022/07/13 03:31:16;;;;;;;4.70;3.80;;;19.50;41.20;;;;;;5009278;28;20782;-71
2022/07/13 03:33:42;;;;;;;4.53;3.50;;;19.50;41.80;;;;;;5001788;28;20429;-71
2022/07/13 03:36:08;;;;;;;8.40;3.90;;;19.40;41.50;;;;;;5008669;28;20431;-71
2022/07/13 03:38:34;;;;;;;4.77;3.87;;;19.30;42.00;;;;;;5012532;28;20209;-71
2022/07/13 03:41:00;;;;;;;4.33;3.80;;;19.20;41.80;;;;;;5010592;28;20545;-71
2022/07/13 03:43:26;;;;;;;3.70;3.20;;;19.20;42.30;;;;;;5002130;28;20521;-70
2022/07/13 03:45:52;;;;;;;3.50;3.30;;;19.50;42.50;;;;;;5001397;28;20619;-71
2022/07/13 03:48:18;;;;;;;5.83;3.83;;;19.40;42.20;;;;;;5011497;28;20615;-71
2022/07/13 03:50:44;;;;;;;4.13;3.37;;;19.40;42.50;;;;;;5012994;28;20642;-69
2022/07/13 03:53:11;;;;;;;5.90;3.47;;;19.20;42.10;;;;;;5004252;28;20462;-71
2022/07/13 03:55:40;;;;;;;6.30;3.47;;;19.20;42.00;;;;;;4999655;28;20510;-71
2022/07/13 03:58:06;;;;;;;5.90;4.33;;;19.30;42.10;;;;;;5012220;28;20993;-71
2022/07/13 04:00:32;;;;;;;5.30;4.70;;;19.20;42.20;;;;;;5008681;28;20448;-71
2022/07/13 04:02:58;;;;;;;6.70;5.90;;;19.10;42.80;;;;;;5008561;28;20376;-71
2022/07/13 04:05:24;;;;;;;6.80;4.40;;;19.00;42.60;;;;;;5003882;28;20644;-71
2022/07/13 04:07:50;;;;;;;5.77;4.43;;;18.80;43.20;;;;;;5012269;28;20335;-71
2022/07/13 04:10:19;;;;;;;5.27;3.80;;;18.80;43.40;;;;;;5011656;28;20571;-71
2022/07/13 04:12:46;;;;;;;7.90;4.87;;;18.80;43.60;;;;;;5015288;28;20187;-71
2022/07/13 04:15:12;;;;;;;5.00;4.37;;;18.60;43.00;;;;;;5012032;28;20436;-71
2022/07/13 04:17:38;;;;;;;13.83;4.50;;;18.50;44.30;;;;;;5004027;28;20886;-71
2022/07/13 04:20:04;;;;;;;6.03;4.30;;;18.40;44.30;;;;;;5012091;28;20529;-71
2022/07/13 04:22:30;;;;;;;6.20;4.57;;;18.60;44.10;;;;;;5003987;28;20417;-72
2022/07/13 04:24:55;;;;;;;5.47;4.00;;;18.70;42.60;;;;;;5011973;28;20929;-71
2022/07/13 04:27:21;;;;;;;10.40;4.73;;;18.90;42.30;;;;;;5006803;28;20197;-71
2022/07/13 04:29:47;;;;;;;6.47;5.07;;;19.10;42.20;;;;;;5010339;28;20689;-71
2022/07/13 04:32:12;;;;;;;6.60;5.00;;;19.10;41.20;;;;;;5005895;28;20190;-71
2022/07/13 04:34:38;;;;;;;6.13;4.40;;;19.00;41.50;;;;;;5012287;28;20198;-71
2022/07/13 04:37:03;;;;;;;5.20;4.03;;;19.00;42.10;;;;;;5003783;28;20527;-71
2022/07/13 04:39:29;;;;;;;6.77;5.40;;;19.10;41.40;;;;;;5010500;28;20298;-71
2022/07/13 04:41:55;;;;;;;14.60;11.70;;;18.80;41.90;;;;;;5008259;28;20214;-71
2022/07/13 04:44:20;;;;;;;14.87;9.93;;;18.40;43.30;;;;;;5005336;28;20175;-71
2022/07/13 04:46:46;;;;;;;18.97;15.73;;;18.60;44.40;;;;;;5011090;28;20195;-71
2022/07/13 04:49:12;;;;;;;35.67;27.70;;;18.80;42.20;;;;;;5008909;28;20212;-71
2022/07/13 04:51:38;;;;;;;20.00;17.00;;;19.00;42.30;;;;;;5005637;28;20517;-71
2022/07/13 04:54:03;;;;;;;18.30;13.33;;;19.20;41.20;;;;;;4999968;28;20447;-69
2022/07/13 04:56:29;;;;;;;14.43;12.50;;;19.40;41.10;;;;;;5007823;28;20206;-71
2022/07/13 04:58:55;;;;;;;13.60;11.03;;;19.60;40.30;;;;;;5003939;28;20211;-71
2022/07/13 05:01:21;;;;;;;11.30;8.97;;;19.50;41.20;;;;;;5005213;28;20461;-71
2022/07/13 05:03:47;;;;;;;10.00;7.97;;;19.50;41.30;;;;;;5000418;28;20198;-71
2022/07/13 05:06:14;;;;;;;8.40;5.70;;;19.60;40.80;;;;;;5003413;28;20998;-71
2022/07/13 05:08:40;;;;;;;8.80;5.23;;;19.80;40.60;;;;;;5007793;28;20215;-71
2022/07/13 05:11:07;;;;;;;9.40;5.60;;;19.90;40.30;;;;;;5003465;28;20539;-71
2022/07/13 05:13:33;;;;;;;7.53;5.70;;;20.10;40.60;;;;;;5008759;28;20532;-71
2022/07/13 05:15:59;;;;;;;8.30;6.27;;;20.20;40.40;;;;;;5009747;28;20529;-71
2022/07/13 05:18:24;;;;;;;9.70;7.90;;;20.30;39.50;;;;;;5009357;28;20580;-71
2022/07/13 05:20:50;;;;;;;9.17;7.40;;;19.80;38.60;;;;;;5004815;28;20212;-71
2022/07/13 05:23:15;;;;;;;9.80;6.80;;;19.50;39.20;;;;;;5009852;28;21009;-71
2022/07/13 05:25:41;;;;;;;11.10;8.00;;;19.50;41.40;;;;;;5003092;28;20241;-71
2022/07/13 05:28:07;;;;;;;17.37;9.20;;;19.80;39.80;;;;;;5006828;28;20684;-71
2022/07/13 05:30:32;;;;;;;15.20;8.67;;;20.20;40.30;;;;;;5006904;28;20276;-71
2022/07/13 05:32:58;;;;;;;12.70;7.80;;;20.00;39.50;;;;;;5008552;28;20699;-71
2022/07/13 05:35:23;;;;;;;11.03;6.67;;;19.90;39.20;;;;;;5005438;28;20191;-70
2022/07/13 05:37:49;;;;;;;9.23;5.73;;;20.00;38.50;;;;;;5003312;28;20187;-70
2022/07/13 05:40:15;;;;;;;7.90;5.70;;;19.90;39.00;;;;;;5007335;28;20207;-70
2022/07/13 05:42:40;;;;;;;9.90;6.23;;;20.30;38.70;;;;;;5005074;28;20192;-71
2022/07/13 05:45:06;;;;;;;24.63;6.10;;;20.30;38.90;;;;;;5008604;28;20191;-71
2022/07/13 05:47:32;;;;;;;20.53;5.23;;;20.60;37.80;;;;;;5008901;28;20186;-71
2022/07/13 05:49:58;;;;;;;11.77;7.50;;;19.90;39.00;;;;;;5005086;28;20475;-72
2022/07/13 05:52:24;;;;;;;6.90;5.80;;;19.90;38.60;;;;;;5003790;28;20544;-71
2022/07/13 05:54:50;;;;;;;7.60;4.80;;;19.50;39.80;;;;;;5007998;28;20208;-71
2022/07/13 05:57:16;;;;;;;21.47;6.23;;;19.20;40.90;;;;;;5011796;28;20416;-71
2022/07/13 05:59:42;;;;;;;11.93;5.70;;;19.20;41.70;;;;;;5009451;28;20465;-71
2022/07/13 06:02:07;;;;;;;6.60;5.03;;;19.10;42.50;;;;;;5009996;28;20304;-71
2022/07/13 06:04:33;;;;;;;6.27;4.50;;;19.10;41.30;;;;;;5009001;28;20183;-71
2022/07/13 06:06:59;;;;;;;12.80;4.93;;;19.00;42.90;;;;;;5008158;28;20184;-71
2022/07/13 06:09:24;;;;;;;8.17;5.23;;;19.40;41.10;;;;;;5011074;28;20260;-72
2022/07/13 06:11:50;;;;;;;6.40;3.90;;;19.50;41.20;;;;;;5013375;28;20191;-72
2022/07/13 06:14:16;;;;;;;8.80;4.27;;;20.00;40.00;;;;;;5014327;28;20272;-71
2022/07/13 06:16:41;;;;;;;16.23;4.10;;;20.40;38.60;;;;;;5013508;28;20188;-72
2022/07/13 06:19:07;;;;;;;6.63;4.10;;;20.20;39.30;;;;;;5009654;28;20206;-71
2022/07/13 06:21:33;;;;;;;14.20;4.20;;;20.40;39.10;;;;;;5014350;28;20229;-72
2022/07/13 06:23:59;;;;;;;4.37;3.93;;;20.80;37.80;;;;;;5003474;28;20185;-70
2022/07/13 06:26:24;;;;;;;7.37;4.13;;;21.20;36.60;;;;;;5008333;28;20554;-71
2022/07/13 06:28:50;;;;;;;6.30;3.53;;;21.30;36.40;;;;;;5013921;28;20371;-71
2022/07/13 06:31:16;;;;;;;5.90;3.90;;;21.50;36.50;;;;;;5007160;28;20187;-71
2022/07/13 06:33:44;;;;;;;4.57;3.37;;;21.80;35.30;;;;;;5012679;28;20190;-71
2022/07/13 06:36:10;;;;;;;4.73;3.47;;;21.40;35.50;;;;;;5004130;28;20274;-71
2022/07/13 06:38:35;;;;;;;7.30;3.60;;;21.30;35.10;;;;;;5012848;28;20539;-71
2022/07/13 06:41:01;;;;;;;9.00;3.90;;;21.20;36.10;;;;;;5005252;28;20201;-71
2022/07/13 06:43:26;;;;;;;7.43;3.57;;;21.50;35.50;;;;;;5007330;28;20679;-70
2022/07/13 06:45:52;;;;;;;10.27;3.90;;;21.60;36.10;;;;;;5005373;28;20839;-71
2022/07/13 06:48:18;;;;;;;5.57;3.83;;;21.40;36.70;;;;;;5012060;28;20220;-71
2022/07/13 06:50:44;;;;;;;3.67;3.53;;;21.00;37.60;;;;;;5004518;28;20196;-69
2022/07/13 06:53:10;;;;;;;5.83;3.60;;;20.90;38.20;;;;;;5013439;28;20590;-71
2022/07/13 06:55:35;;;;;;;7.97;4.20;;;20.80;39.10;;;;;;5007104;28;20520;-72
2022/07/13 06:58:02;;;;;;;9.23;3.90;;;21.10;38.40;;;;;;5010169;28;20198;-70
2022/07/13 07:00:28;;;;;;;8.33;4.10;;;21.10;38.90;;;;;;5007149;28;20200;-71
2022/07/13 07:02:54;;;;;;;9.70;4.17;;;21.40;37.00;;;;;;5011201;28;20438;-71
2022/07/13 07:05:19;;;;;;;7.57;3.63;;;21.90;36.70;;;;;;5006647;28;20429;-71
2022/07/13 07:07:45;;;;;;;7.80;3.60;;;21.80;37.40;;;;;;5011443;28;20193;-70
2022/07/13 07:10:11;;;;;;;5.03;3.50;;;21.70;37.60;;;;;;5009851;28;20250;-72
2022/07/13 07:12:37;;;;;;;10.00;3.50;;;21.70;37.40;;;;;;5009713;28;20178;-73
2022/07/13 07:15:03;;;;;;;4.87;3.90;;;21.70;37.60;;;;;;5008758;28;20193;-72
2022/07/13 07:17:29;;;;;;;6.67;3.67;;;22.20;36.10;;;;;;5006079;28;20513;-71
2022/07/13 07:19:58;;;;;;;5.00;3.30;;;22.30;35.80;;;;;;5004478;28;20518;-71
2022/07/13 07:22:24;;;;;;;5.37;3.20;;;22.20;36.50;;;;;;4999956;28;20314;-71
2022/07/13 07:24:51;;;;;;;5.17;3.17;;;22.70;35.20;;;;;;5007081;28;20785;-71
2022/07/13 07:27:17;;;;;;;6.10;3.60;;;22.40;35.50;;;;;;5013767;28;20187;-71
2022/07/13 07:29:42;;;;;;;4.77;3.20;;;22.30;35.40;;;;;;5010556;28;21057;-72
2022/07/13 07:32:08;;;;;;;5.73;3.33;;;22.10;35.80;;;;;;5011491;28;20457;-71
2022/07/13 07:34:34;;;;;;;3.77;2.87;;;22.50;34.50;;;;;;5011653;28;20262;-72
2022/07/13 07:37:00;;;;;;;3.93;3.20;;;23.30;33.40;;;;;;5007284;28;20184;-72
2022/07/13 07:39:26;;;;;;;4.40;3.70;;;23.30;32.50;;;;;;5010896;28;20722;-71
2022/07/13 07:41:52;;;;;;;5.03;3.20;;;23.20;33.00;;;;;;5011707;28;20463;-77
2022/07/13 07:44:21;;;;;;;11.90;3.27;;;23.40;33.10;;;;;;5010049;28;20702;-71
2022/07/13 07:46:47;;;;;;;7.60;3.30;;;23.50;32.30;;;;;;5011890;28;20426;-71
2022/07/13 07:49:13;;;;;;;10.03;3.90;;;23.60;32.60;;;;;;5002484;28;20440;-71
2022/07/13 07:51:38;;;;;;;6.63;3.60;;;23.50;31.10;;;;;;5007295;28;20219;-70
2022/07/13 07:54:05;;;;;;;9.47;5.70;;;23.70;31.70;;;;;;5012415;28;20903;-71
2022/07/13 07:56:31;;;;;;;5.80;4.30;;;23.80;31.50;;;;;;5005314;28;20192;-71
2022/07/13 07:58:57;;;;;;;11.07;4.30;;;24.60;30.10;;;;;;5004379;28;20444;-71
2022/07/13 08:01:23;;;;;;;7.40;4.53;;;24.30;30.60;;;;;;5007172;28;20471;-70
2022/07/13 08:03:49;;;;;;;9.30;4.53;;;24.60;29.30;;;;;;5010167;28;20192;-69
2022/07/13 08:06:16;;;;;;;8.40;3.83;;;24.30;30.50;;;;;;5010429;28;20498;-72
2022/07/13 08:08:42;;;;;;;4.63;3.03;;;24.50;29.80;;;;;;5005601;28;20212;-71
2022/07/13 08:11:09;;;;;;;4.60;3.20;;;25.00;29.30;;;;;;5010356;28;20439;-71
2022/07/13 08:13:35;;;;;;;6.10;3.17;;;25.00;27.90;;;;;;5048308;22;21275;-68
2022/07/13 08:16:02;;;;;;;8.20;3.20;;;25.10;28.60;;;;;;5048345;28;20465;-68
2022/07/13 08:18:28;;;;;;;7.23;3.50;;;25.60;28.30;;;;;;5051388;28;20944;-68
2022/07/13 08:20:54;;;;;;;11.00;3.90;;;25.20;28.20;;;;;;5042242;28;20546;-68
2022/07/13 08:26:04;;;;;;;10.60;3.60;;;24.90;30.60;;;;;;5031560;28;20294;-68
2022/07/13 08:28:30;;;;;;;10.33;3.10;;;25.30;28.50;;;;;;5025006;28;20506;-68
2022/07/13 08:30:55;;;;;;;5.33;3.07;;;25.70;28.00;;;;;;5030934;28;20327;-67
2022/07/13 08:38:34;;;;;;;8.37;3.30;;;26.20;27.50;;;;;;5030614;28;20203;-68
2022/07/13 08:38:51;;;;;;;7.10;2.70;;;25.70;27.80;;;;;;5027573;28;20430;-68
2022/07/13 08:41:16;;;;;;;6.13;2.80;;;25.60;27.90;;;;;;5029341;28;20471;-68
2022/07/13 08:43:42;;;;;;;3.13;2.90;;;26.20;27.90;;;;;;5026805;28;20672;-68
2022/07/13 08:46:08;;;;;;;5.60;2.80;;;25.80;27.80;;;;;;5022102;28;20184;-68
2022/07/13 08:48:37;;;;;;;7.20;3.10;;;25.60;28.50;;;;;;5029786;28;20192;-69
2022/07/13 08:51:04;;;;;;;5.93;2.77;;;25.50;27.80;;;;;;5036078;28;20528;-68
2022/07/13 08:53:30;;;;;;;3.00;2.90;;;26.00;27.50;;;;;;5024158;28;20461;-68
2022/07/13 08:55:56;;;;;;;8.23;3.33;;;25.90;27.00;;;;;;5029253;28;20442;-68
2022/07/13 08:58:22;;;;;;;3.90;3.00;;;26.30;26.60;;;;;;5029975;28;20206;-69
2022/07/13 09:00:49;;;;;;;5.63;3.10;;;26.90;27.10;;;;;;5030833;28;20451;-68
2022/07/13 09:03:15;;;;;;;8.50;3.07;;;27.40;25.80;;;;;;5030339;28;20478;-68
2022/07/13 09:05:41;;;;;;;6.13;3.03;;;27.90;24.40;;;;;;5029017;28;20493;-68
2022/07/13 09:08:09;;;;;;;9.30;3.10;;;27.60;26.00;;;;;;5027858;28;20427;-69
2022/07/13 09:10:57;;;;;;;4.20;2.70;;;27.20;23.80;;;;;;5023109;28;20510;-69
2022/07/13 09:13:39;;;;;;;5.77;3.20;;;26.70;24.80;;;;;;5030171;28;20464;-69
2022/07/13 09:16:14;;;;;;;6.90;2.63;;;27.30;23.00;;;;;;5030600;28;20438;-68
2022/07/13 09:18:40;;;;;;;2.93;2.73;;;27.40;25.30;;;;;;5030472;28;20430;-69
2022/07/13 09:21:07;;;;;;;8.83;3.00;;;27.60;22.70;;;;;;5023820;28;20553;-68
2022/07/13 09:23:33;;;;;;;4.10;3.10;;;27.50;22.60;;;;;;5027752;28;20490;-68
2022/07/13 09:25:58;;;;;;;2.73;2.60;;;27.80;22.80;;;;;;5023742;28;20520;-69
2022/07/13 09:28:24;;;;;;;6.03;2.33;;;27.60;22.30;;;;;;5029586;28;20176;-68
2022/07/13 09:30:50;;;;;;;6.43;2.83;;;27.60;21.80;;;;;;5027085;28;20188;-69
2022/07/13 09:33:32;;;;;;;6.50;2.73;;;27.80;22.80;;;;;;5027600;28;20458;-68
2022/07/13 09:35:58;;;;;;;15.13;3.00;;;28.10;22.10;;;;;;5030292;28;20659;-68
2022/07/13 09:38:37;;;;;;;2.80;2.37;;;28.20;20.40;;;;;;5025458;28;20453;-68
2022/07/13 09:41:17;;;;;;;2.80;2.60;;;28.40;20.90;;;;;;5027970;28;20481;-68
2022/07/13 09:46:50;;;;;;;11.20;2.73;;;28.50;20.50;;;;;;5036138;28;20409;-68
2022/07/13 09:49:37;;;;;;;6.63;2.77;;;29.00;23.00;;;;;;5031212;28;20423;-69
2022/07/13 09:52:06;;;;;;;3.60;2.50;;;29.30;21.90;;;;;;5025258;28;20537;-68
2022/07/13 09:54:34;;;;;;;10.03;2.60;;;29.70;22.30;;;;;;5022167;28;20442;-68
2022/07/13 09:57:03;;;;;;;2.50;2.30;;;29.50;19.50;;;;;;5029540;28;20435;-68
2022/07/13 09:59:28;;;;;;;4.37;2.43;;;29.10;21.80;;;;;;5027573;28;20437;-67
2022/07/13 10:01:54;;;;;;;5.27;2.70;;;29.40;21.20;;;;;;5029431;28;20553;-68
2022/07/13 10:04:21;;;;;;;3.03;2.37;;;29.50;20.30;;;;;;5030280;28;20188;-67
2022/07/13 10:06:47;;;;;;;6.90;2.73;;;29.50;20.40;;;;;;5026954;28;20180;-68
2022/07/13 10:09:14;;;;;;;9.83;2.80;;;29.80;21.40;;;;;;5030713;28;20425;-69
2022/07/13 10:11:40;;;;;;;7.37;2.50;;;30.10;20.20;;;;;;5027549;28;20465;-68
2022/07/13 10:14:06;;;;;;;2.87;2.73;;;29.40;18.80;;;;;;5027989;28;20466;-68
2022/07/13 10:16:32;;;;;;;4.00;2.70;;;29.00;19.50;;;;;;5025814;28;20249;-68
2022/07/13 10:19:03;;;;;;;6.80;2.50;;;29.00;20.10;;;;;;5030633;28;20752;-68
2022/07/13 10:21:50;;;;;;;4.53;2.53;;;28.70;19.80;;;;;;5029309;28;20541;-68
2022/07/13 10:24:17;;;;;;;2.87;2.77;;;28.70;20.50;;;;;;5022856;28;20431;-68
2022/07/13 10:26:43;;;;;;;8.07;2.47;;;29.20;19.70;;;;;;5020016;28;20538;-69
2022/07/13 10:29:12;;;;;;;20.30;2.70;;;30.00;18.60;;;;;;5030255;28;20419;-69
2022/07/13 10:31:40;;;;;;;7.37;2.40;;;30.80;18.70;;;;;;5028057;28;20534;-68
2022/07/13 10:34:07;;;;;;;5.10;2.30;;;30.80;18.50;;;;;;5027609;28;20956;-68
2022/07/13 10:36:49;;;;;;;2.93;2.23;;;30.90;18.90;;;;;;5022654;28;20435;-69
2022/07/13 10:39:16;;;;;;;2.87;2.60;;;31.40;19.30;;;;;;5024989;28;21225;-68
2022/07/13 10:42:05;;;;;;;5.63;2.40;;;31.00;15.10;;;;;;5034313;28;20462;-69
2022/07/13 10:44:36;;;;;;;3.17;2.50;;;30.90;16.40;;;;;;5023881;28;21043;-69
2022/07/13 10:47:07;;;;;;;2.77;2.40;;;31.50;16.80;;;;;;5030057;28;20407;-68
2022/07/13 10:49:35;;;;;;;7.00;2.80;;;30.80;15.20;;;;;;5029308;28;20459;-67
2022/07/13 10:52:26;;;;;;;6.90;2.30;;;29.60;15.80;;;;;;5025273;28;20435;-69
2022/07/13 10:55:05;;;;;;;2.80;2.53;;;30.00;16.30;;;;;;5018272;28;20458;-67
2022/07/13 10:57:36;;;;;;;6.93;2.50;;;30.70;17.80;;;;;;5028776;28;20502;-68
2022/07/13 11:00:28;;;;;;;5.93;2.30;;;31.60;15.10;;;;;;5028901;28;20435;-68
2022/07/13 11:03:01;;;;;;;4.33;2.27;;;31.80;14.20;;;;;;5031791;28;20463;-68
2022/07/13 11:05:30;;;;;;;5.93;2.30;;;32.40;14.10;;;;;;5026711;28;20514;-68
2022/07/13 11:07:57;;;;;;;6.20;2.77;;;32.40;14.50;;;;;;5028900;28;20433;-68
2022/07/13 11:10:30;;;;;;;5.40;2.53;;;32.80;14.90;;;;;;5030161;28;20434;-69
2022/07/13 11:13:10;;;;;;;2.70;2.50;;;33.10;14.00;;;;;;5029420;28;20465;-69
2022/07/13 11:15:52;;;;;;;2.50;2.10;;;32.60;13.20;;;;;;5028684;28;20427;-69
2022/07/13 11:18:21;;;;;;;4.90;2.47;;;32.60;13.80;;;;;;5033184;28;20431;-69
2022/07/13 11:20:59;;;;;;;4.53;2.70;;;31.70;14.50;;;;;;5031236;28;20467;-71
2022/07/13 11:26:20;;;;;;;7.53;2.63;;;32.70;13.00;;;;;;5030115;28;20866;-69
2022/07/13 11:29:03;;;;;;;5.37;2.53;;;32.40;14.30;;;;;;5031357;28;20422;-69
2022/07/13 11:31:31;;;;;;;7.60;2.50;;;32.80;13.90;;;;;;5029159;28;21037;-68
2022/07/13 11:33:56;;;;;;;6.30;2.80;;;33.10;14.40;;;;;;5027114;28;20526;-69
2022/07/13 11:36:24;;;;;;;4.20;2.50;;;33.80;13.20;;;;;;5028326;28;20925;-69
2022/07/13 11:38:50;;;;;;;2.33;2.20;;;34.90;14.00;;;;;;5029783;28;20185;-68
2022/07/13 11:41:20;;;;;;;5.20;2.30;;;35.90;11.10;;;;;;5028806;28;20842;-67
2022/07/13 11:43:50;;;;;;;3.17;2.30;;;35.00;11.60;;;;;;5027561;28;20451;-69
2022/07/13 11:46:24;;;;;;;2.83;2.20;;;36.00;11.80;;;;;;5032243;28;20502;-69
2022/07/13 11:49:10;;;;;;;7.20;2.40;;;36.90;8.60;;;;;;5028089;28;20529;-69
2022/07/13 11:51:35;;;;;;;2.70;2.50;;;36.30;8.80;;;;;;5029187;28;20439;-69
2022/07/13 11:54:15;;;;;;;8.10;2.10;;;34.70;10.00;;;;;;5031802;28;20442;-69
2022/07/13 11:56:56;;;;;;;2.73;2.20;;;33.60;11.50;;;;;;5029606;28;20180;-69
2022/07/13 11:59:34;;;;;;;4.93;2.17;;;33.50;11.70;;;;;;5026987;28;20466;-70
2022/07/13 12:02:02;;;;;;;3.30;2.43;;;33.20;10.80;;;;;;5029957;28;20512;-68
2022/07/13 12:04:28;;;;;;;2.50;2.30;;;33.20;12.00;;;;;;5029507;28;20977;-71
2022/07/13 12:07:12;;;;;;;2.43;2.30;;;33.70;10.80;;;;;;5030086;28;20510;-70
2022/07/13 12:09:55;;;;;;;12.63;2.30;;;33.70;11.10;;;;;;5023051;28;20643;-70
2022/07/13 12:12:36;;;;;;;2.83;2.00;;;35.10;11.50;;;;;;5030655;28;20438;-70
2022/07/13 12:15:03;;;;;;;4.10;2.30;;;33.30;10.40;;;;;;5028758;28;20525;-71
2022/07/13 12:17:31;;;;;;;2.90;2.03;;;33.30;9.10;;;;;;5028982;28;20431;-70
2022/07/13 12:20:13;;;;;;;3.17;2.40;;;33.60;10.80;;;;;;5029818;28;20442;-68
2022/07/13 12:22:39;;;;;;;4.90;2.13;;;34.70;8.90;;;;;;5029929;28;20430;-70
2022/07/13 12:25:06;;;;;;;3.43;2.17;;;35.30;9.30;;;;;;5028070;28;20455;-70
2022/07/13 12:27:33;;;;;;;3.50;2.27;;;34.90;8.90;;;;;;5026936;28;20176;-71
2022/07/13 12:30:10;;;;;;;3.80;2.40;;;35.40;10.90;;;;;;5029763;28;20466;-70
2022/07/13 12:32:56;;;;;;;1.97;1.90;;;35.90;7.40;;;;;;5029958;28;20434;-71
2022/07/13 12:35:25;;;;;;;6.10;2.13;;;36.00;8.70;;;;;;5026158;28;20426;-69
2022/07/13 12:37:52;;;;;;;3.13;2.30;;;35.70;8.10;;;;;;5027109;28;20430;-69
2022/07/13 12:40:36;;;;;;;4.50;2.27;;;36.30;8.00;;;;;;5025549;28;20459;-69
2022/07/13 12:43:01;;;;;;;5.43;2.10;;;37.10;7.80;;;;;;5026584;28;20484;-70
2022/07/13 12:45:31;;;;;;;2.57;2.00;;;37.60;8.30;;;;;;5019811;28;20463;-68
2022/07/13 12:47:57;;;;;;;5.10;2.00;;;35.40;6.90;;;;;;5026437;28;20671;-68
2022/07/13 12:50:30;;;;;;;6.20;2.30;;;35.00;8.40;;;;;;5025672;28;20467;-69
2022/07/13 12:53:00;;;;;;;2.23;2.03;;;34.20;8.50;;;;;;5024844;28;20450;-69
2022/07/13 12:55:26;;;;;;;4.53;2.10;;;33.80;9.20;;;;;;5025435;28;20435;-70
2022/07/13 12:57:52;;;;;;;2.20;2.00;;;34.30;9.40;;;;;;5029291;28;20435;-69
2022/07/13 13:00:23;;;;;;;3.80;2.10;;;33.90;7.80;;;;;;5029299;28;20203;-69